sensor_id;sensor_type;location;lat;lon;timestamp;P1;durP1;ratioP1;P2;durP2;ratioP2
55489;SDS011;44029;52.956;4.772;2023-04-06T00:00:07;17.73;;;6.72;;
55489;SDS011;44029;52.956;4.772;2023-04-06T00:02:34;16.55;;;6.50;;
55489;SDS011;44029;52.956;4.772;2023-04-06T00:04:59;13.02;;;6.03;;
55489;SDS011;44029;52.956;4.772;2023-04-06T00:07:25;11.77;;;5.97;;
55489;SDS011;44029;52.956;4.772;2023-04-06T00:09:51;12.82;;;6.40;;
55489;SDS011;44029;52.956;4.772;2023-04-06T00:12:16;13.32;;;7.03;;
55489;SDS011;44029;52.956;4.772;2023-04-06T00:14:42;11.48;;;6.18;;
55489;SDS011;44029;52.956;4.772;2023-04-06T00:17:07;16.13;;;5.97;;
55489;SDS011;44029;52.956;4.772;2023-04-06T00:19:32;15.15;;;6.15;;
55489;SDS011;44029;52.956;4.772;2023-04-06T00:21:58;12.75;;;5.72;;
55489;SDS011;44029;52.956;4.772;2023-04-06T00:24:23;14.27;;;5.68;;
55489;SDS011;44029;52.956;4.772;2023-04-06T00:26:48;10.70;;;5.57;;
55489;SDS011;44029;52.956;4.772;2023-04-06T00:29:14;13.23;;;5.63;;
55489;SDS011;44029;52.956;4.772;2023-04-06T00:31:40;22.73;;;6.95;;
55489;SDS011;44029;52.956;4.772;2023-04-06T00:34:05;22.02;;;7.72;;
55489;SDS011;44029;52.956;4.772;2023-04-06T00:36:31;10.43;;;5.20;;
55489;SDS011;44029;52.956;4.772;2023-04-06T00:38:56;10.68;;;5.82;;
55489;SDS011;44029;52.956;4.772;2023-04-06T00:41:21;14.85;;;6.40;;
55489;SDS011;44029;52.956;4.772;2023-04-06T00:43:47;16.38;;;6.10;;
55489;SDS011;44029;52.956;4.772;2023-04-06T00:46:12;9.63;;;5.35;;
55489;SDS011;44029;52.956;4.772;2023-04-06T00:48:38;12.65;;;5.85;;
55489;SDS011;44029;52.956;4.772;2023-04-06T00:51:04;10.80;;;6.00;;
55489;SDS011;44029;52.956;4.772;2023-04-06T00:53:29;11.48;;;5.28;;
55489;SDS011;44029;52.956;4.772;2023-04-06T00:55:55;11.70;;;5.78;;
55489;SDS011;44029;52.956;4.772;2023-04-06T00:58:20;14.82;;;5.60;;
55489;SDS011;44029;52.956;4.772;2023-04-06T01:00:45;12.77;;;6.97;;
55489;SDS011;44029;52.956;4.772;2023-04-06T01:03:11;12.65;;;6.38;;
55489;SDS011;44029;52.956;4.772;2023-04-06T01:05:36;9.85;;;5.22;;
55489;SDS011;44029;52.956;4.772;2023-04-06T01:08:06;15.43;;;6.85;;
55489;SDS011;44029;52.956;4.772;2023-04-06T01:10:31;10.80;;;6.25;;
55489;SDS011;44029;52.956;4.772;2023-04-06T01:12:57;13.75;;;6.22;;
55489;SDS011;44029;52.956;4.772;2023-04-06T01:15:22;17.98;;;6.28;;
55489;SDS011;44029;52.956;4.772;2023-04-06T01:17:49;13.35;;;6.65;;
55489;SDS011;44029;52.956;4.772;2023-04-06T01:20:14;19.50;;;7.43;;
55489;SDS011;44029;52.956;4.772;2023-04-06T01:22:40;20.92;;;7.78;;
55489;SDS011;44029;52.956;4.772;2023-04-06T01:25:05;19.05;;;6.63;;
55489;SDS011;44029;52.956;4.772;2023-04-06T01:27:31;14.23;;;6.72;;
55489;SDS011;44029;52.956;4.772;2023-04-06T01:29:56;15.27;;;7.45;;
55489;SDS011;44029;52.956;4.772;2023-04-06T01:32:22;17.63;;;7.55;;
55489;SDS011;44029;52.956;4.772;2023-04-06T01:34:47;16.05;;;7.38;;
55489;SDS011;44029;52.956;4.772;2023-04-06T01:37:12;13.25;;;6.80;;
55489;SDS011;44029;52.956;4.772;2023-04-06T01:39:38;15.25;;;6.47;;
55489;SDS011;44029;52.956;4.772;2023-04-06T01:42:03;17.25;;;7.20;;
55489;SDS011;44029;52.956;4.772;2023-04-06T01:44:28;16.65;;;6.53;;
55489;SDS011;44029;52.956;4.772;2023-04-06T01:46:55;13.25;;;7.10;;
55489;SDS011;44029;52.956;4.772;2023-04-06T01:49:21;17.80;;;6.40;;
55489;SDS011;44029;52.956;4.772;2023-04-06T01:51:47;12.95;;;6.10;;
55489;SDS011;44029;52.956;4.772;2023-04-06T01:54:12;16.02;;;6.47;;
55489;SDS011;44029;52.956;4.772;2023-04-06T01:56:37;31.15;;;7.82;;
55489;SDS011;44029;52.956;4.772;2023-04-06T01:59:03;15.55;;;4.97;;
55489;SDS011;44029;52.956;4.772;2023-04-06T02:01:28;16.67;;;6.90;;
55489;SDS011;44029;52.956;4.772;2023-04-06T02:03:53;21.52;;;7.03;;
55489;SDS011;44029;52.956;4.772;2023-04-06T02:06:19;9.75;;;4.38;;
55489;SDS011;44029;52.956;4.772;2023-04-06T02:08:44;15.88;;;6.50;;
55489;SDS011;44029;52.956;4.772;2023-04-06T02:11:10;15.63;;;6.57;;
55489;SDS011;44029;52.956;4.772;2023-04-06T02:13:35;14.40;;;6.45;;
55489;SDS011;44029;52.956;4.772;2023-04-06T02:16:00;12.57;;;5.95;;
55489;SDS011;44029;52.956;4.772;2023-04-06T02:18:27;15.43;;;6.72;;
55489;SDS011;44029;52.956;4.772;2023-04-06T02:20:53;12.43;;;6.13;;
55489;SDS011;44029;52.956;4.772;2023-04-06T02:23:18;14.95;;;6.07;;
55489;SDS011;44029;52.956;4.772;2023-04-06T02:25:44;15.77;;;6.25;;
55489;SDS011;44029;52.956;4.772;2023-04-06T02:28:09;11.25;;;5.95;;
55489;SDS011;44029;52.956;4.772;2023-04-06T02:30:35;15.88;;;6.85;;
55489;SDS011;44029;52.956;4.772;2023-04-06T02:33:00;13.65;;;5.95;;
55489;SDS011;44029;52.956;4.772;2023-04-06T02:35:27;15.30;;;5.82;;
55489;SDS011;44029;52.956;4.772;2023-04-06T02:37:53;11.40;;;5.60;;
55489;SDS011;44029;52.956;4.772;2023-04-06T02:40:19;12.30;;;5.70;;
55489;SDS011;44029;52.956;4.772;2023-04-06T02:42:44;12.18;;;6.07;;
55489;SDS011;44029;52.956;4.772;2023-04-06T02:45:09;12.55;;;5.57;;
55489;SDS011;44029;52.956;4.772;2023-04-06T02:47:35;11.98;;;5.47;;
55489;SDS011;44029;52.956;4.772;2023-04-06T02:50:00;9.32;;;4.40;;
55489;SDS011;44029;52.956;4.772;2023-04-06T02:52:26;12.60;;;6.07;;
55489;SDS011;44029;52.956;4.772;2023-04-06T02:54:51;11.55;;;5.72;;
55489;SDS011;44029;52.956;4.772;2023-04-06T02:57:17;12.00;;;6.15;;
55489;SDS011;44029;52.956;4.772;2023-04-06T02:59:42;13.27;;;6.25;;
55489;SDS011;44029;52.956;4.772;2023-04-06T03:02:08;12.07;;;5.75;;
55489;SDS011;44029;52.956;4.772;2023-04-06T03:04:33;12.90;;;6.03;;
55489;SDS011;44029;52.956;4.772;2023-04-06T03:06:58;16.63;;;6.40;;
55489;SDS011;44029;52.956;4.772;2023-04-06T03:09:23;13.68;;;6.28;;
55489;SDS011;44029;52.956;4.772;2023-04-06T03:11:49;13.93;;;5.50;;
55489;SDS011;44029;52.956;4.772;2023-04-06T03:14:14;13.77;;;5.93;;
55489;SDS011;44029;52.956;4.772;2023-04-06T03:16:42;17.63;;;6.03;;
55489;SDS011;44029;52.956;4.772;2023-04-06T03:19:07;14.48;;;6.00;;
55489;SDS011;44029;52.956;4.772;2023-04-06T03:21:32;12.98;;;5.68;;
55489;SDS011;44029;52.956;4.772;2023-04-06T03:23:58;13.13;;;5.85;;
55489;SDS011;44029;52.956;4.772;2023-04-06T03:26:23;13.32;;;6.20;;
55489;SDS011;44029;52.956;4.772;2023-04-06T03:28:48;10.32;;;5.15;;
55489;SDS011;44029;52.956;4.772;2023-04-06T03:31:13;15.45;;;5.80;;
55489;SDS011;44029;52.956;4.772;2023-04-06T03:33:39;14.60;;;6.05;;
55489;SDS011;44029;52.956;4.772;2023-04-06T03:36:04;10.55;;;5.10;;
55489;SDS011;44029;52.956;4.772;2023-04-06T03:38:30;15.02;;;5.40;;
55489;SDS011;44029;52.956;4.772;2023-04-06T03:40:55;15.07;;;6.40;;
55489;SDS011;44029;52.956;4.772;2023-04-06T03:43:21;13.32;;;6.32;;
55489;SDS011;44029;52.956;4.772;2023-04-06T03:45:46;11.05;;;5.43;;
55489;SDS011;44029;52.956;4.772;2023-04-06T03:48:11;12.95;;;5.85;;
55489;SDS011;44029;52.956;4.772;2023-04-06T03:50:37;11.38;;;5.63;;
55489;SDS011;44029;52.956;4.772;2023-04-06T03:53:02;15.93;;;6.75;;
55489;SDS011;44029;52.956;4.772;2023-04-06T03:55:28;16.02;;;6.38;;
55489;SDS011;44029;52.956;4.772;2023-04-06T03:57:53;14.23;;;5.35;;
55489;SDS011;44029;52.956;4.772;2023-04-06T04:00:18;15.65;;;5.28;;
55489;SDS011;44029;52.956;4.772;2023-04-06T04:02:44;10.13;;;5.47;;
55489;SDS011;44029;52.956;4.772;2023-04-06T04:05:09;9.02;;;3.78;;
55489;SDS011;44029;52.956;4.772;2023-04-06T04:07:35;12.45;;;5.50;;
55489;SDS011;44029;52.956;4.772;2023-04-06T04:10:00;10.80;;;5.47;;
55489;SDS011;44029;52.956;4.772;2023-04-06T04:12:25;12.05;;;5.40;;
55489;SDS011;44029;52.956;4.772;2023-04-06T04:14:51;11.98;;;5.25;;
55489;SDS011;44029;52.956;4.772;2023-04-06T04:17:16;7.85;;;4.47;;
55489;SDS011;44029;52.956;4.772;2023-04-06T04:19:41;10.18;;;5.20;;
55489;SDS011;44029;52.956;4.772;2023-04-06T04:22:06;12.40;;;5.65;;
55489;SDS011;44029;52.956;4.772;2023-04-06T04:24:32;8.73;;;4.28;;
55489;SDS011;44029;52.956;4.772;2023-04-06T04:26:58;15.07;;;5.07;;
55489;SDS011;44029;52.956;4.772;2023-04-06T04:29:25;12.77;;;5.50;;
55489;SDS011;44029;52.956;4.772;2023-04-06T04:31:50;14.30;;;4.95;;
55489;SDS011;44029;52.956;4.772;2023-04-06T04:34:17;11.88;;;6.03;;
55489;SDS011;44029;52.956;4.772;2023-04-06T04:36:45;15.65;;;6.28;;
55489;SDS011;44029;52.956;4.772;2023-04-06T04:39:11;10.40;;;5.20;;
55489;SDS011;44029;52.956;4.772;2023-04-06T04:41:36;9.10;;;4.82;;
55489;SDS011;44029;52.956;4.772;2023-04-06T04:44:01;10.40;;;5.38;;
55489;SDS011;44029;52.956;4.772;2023-04-06T04:46:27;9.35;;;4.68;;
55489;SDS011;44029;52.956;4.772;2023-04-06T04:48:52;10.70;;;4.95;;
55489;SDS011;44029;52.956;4.772;2023-04-06T04:51:17;11.70;;;6.30;;
55489;SDS011;44029;52.956;4.772;2023-04-06T04:53:44;13.35;;;5.90;;
55489;SDS011;44029;52.956;4.772;2023-04-06T04:56:10;14.75;;;6.22;;
55489;SDS011;44029;52.956;4.772;2023-04-06T04:58:35;13.65;;;5.80;;
55489;SDS011;44029;52.956;4.772;2023-04-06T05:01:00;13.82;;;5.85;;
55489;SDS011;44029;52.956;4.772;2023-04-06T05:03:26;13.85;;;5.05;;
55489;SDS011;44029;52.956;4.772;2023-04-06T05:05:51;9.90;;;4.47;;
55489;SDS011;44029;52.956;4.772;2023-04-06T05:08:17;10.40;;;6.25;;
55489;SDS011;44029;52.956;4.772;2023-04-06T05:10:43;13.00;;;6.05;;
55489;SDS011;44029;52.956;4.772;2023-04-06T05:13:10;10.32;;;5.53;;
55489;SDS011;44029;52.956;4.772;2023-04-06T05:15:35;14.63;;;6.80;;
55489;SDS011;44029;52.956;4.772;2023-04-06T05:18:03;11.82;;;6.18;;
55489;SDS011;44029;52.956;4.772;2023-04-06T05:20:29;9.07;;;5.22;;
55489;SDS011;44029;52.956;4.772;2023-04-06T05:22:54;14.00;;;5.32;;
55489;SDS011;44029;52.956;4.772;2023-04-06T05:25:19;13.75;;;6.97;;
55489;SDS011;44029;52.956;4.772;2023-04-06T05:27:45;12.63;;;6.13;;
55489;SDS011;44029;52.956;4.772;2023-04-06T05:30:10;16.10;;;5.75;;
55489;SDS011;44029;52.956;4.772;2023-04-06T05:32:36;11.13;;;6.15;;
55489;SDS011;44029;52.956;4.772;2023-04-06T05:35:01;12.73;;;6.10;;
55489;SDS011;44029;52.956;4.772;2023-04-06T05:37:27;11.85;;;5.90;;
55489;SDS011;44029;52.956;4.772;2023-04-06T05:39:52;12.00;;;6.45;;
55489;SDS011;44029;52.956;4.772;2023-04-06T05:42:17;15.50;;;7.43;;
55489;SDS011;44029;52.956;4.772;2023-04-06T05:44:42;11.25;;;5.90;;
55489;SDS011;44029;52.956;4.772;2023-04-06T05:47:08;14.73;;;6.30;;
55489;SDS011;44029;52.956;4.772;2023-04-06T05:49:33;13.57;;;6.65;;
55489;SDS011;44029;52.956;4.772;2023-04-06T05:51:59;17.52;;;6.38;;
55489;SDS011;44029;52.956;4.772;2023-04-06T05:54:25;16.73;;;6.65;;
55489;SDS011;44029;52.956;4.772;2023-04-06T05:56:50;11.55;;;6.03;;
55489;SDS011;44029;52.956;4.772;2023-04-06T05:59:16;15.23;;;7.15;;
55489;SDS011;44029;52.956;4.772;2023-04-06T06:01:41;12.95;;;5.93;;
55489;SDS011;44029;52.956;4.772;2023-04-06T06:04:06;13.02;;;6.25;;
55489;SDS011;44029;52.956;4.772;2023-04-06T06:06:32;19.67;;;7.82;;
55489;SDS011;44029;52.956;4.772;2023-04-06T06:08:57;10.73;;;5.90;;
55489;SDS011;44029;52.956;4.772;2023-04-06T06:11:25;15.32;;;8.00;;
55489;SDS011;44029;52.956;4.772;2023-04-06T06:13:51;15.25;;;6.63;;
55489;SDS011;44029;52.956;4.772;2023-04-06T06:16:17;13.40;;;6.40;;
55489;SDS011;44029;52.956;4.772;2023-04-06T06:18:42;11.70;;;5.47;;
55489;SDS011;44029;52.956;4.772;2023-04-06T06:21:08;15.80;;;7.03;;
55489;SDS011;44029;52.956;4.772;2023-04-06T06:23:34;18.20;;;7.80;;
55489;SDS011;44029;52.956;4.772;2023-04-06T06:25:59;13.13;;;6.40;;
55489;SDS011;44029;52.956;4.772;2023-04-06T06:28:26;10.20;;;4.72;;
55489;SDS011;44029;52.956;4.772;2023-04-06T06:30:51;20.55;;;6.38;;
55489;SDS011;44029;52.956;4.772;2023-04-06T06:33:17;10.82;;;5.40;;
55489;SDS011;44029;52.956;4.772;2023-04-06T06:35:42;17.13;;;7.90;;
55489;SDS011;44029;52.956;4.772;2023-04-06T06:38:07;17.05;;;7.03;;
55489;SDS011;44029;52.956;4.772;2023-04-06T06:40:33;14.90;;;6.20;;
55489;SDS011;44029;52.956;4.772;2023-04-06T06:42:58;20.38;;;7.40;;
55489;SDS011;44029;52.956;4.772;2023-04-06T06:45:24;18.10;;;7.13;;
55489;SDS011;44029;52.956;4.772;2023-04-06T06:47:50;18.42;;;8.05;;
55489;SDS011;44029;52.956;4.772;2023-04-06T06:50:15;23.63;;;9.18;;
55489;SDS011;44029;52.956;4.772;2023-04-06T06:52:41;16.98;;;7.28;;
55489;SDS011;44029;52.956;4.772;2023-04-06T06:55:07;16.27;;;8.68;;
55489;SDS011;44029;52.956;4.772;2023-04-06T06:57:33;19.20;;;8.38;;
55489;SDS011;44029;52.956;4.772;2023-04-06T06:59:59;15.48;;;7.55;;
55489;SDS011;44029;52.956;4.772;2023-04-06T07:02:25;20.13;;;8.35;;
55489;SDS011;44029;52.956;4.772;2023-04-06T07:04:50;16.60;;;8.25;;
55489;SDS011;44029;52.956;4.772;2023-04-06T07:07:15;17.30;;;7.70;;
55489;SDS011;44029;52.956;4.772;2023-04-06T07:09:41;19.58;;;7.95;;
55489;SDS011;44029;52.956;4.772;2023-04-06T07:12:06;18.13;;;8.32;;
55489;SDS011;44029;52.956;4.772;2023-04-06T07:14:32;17.60;;;8.13;;
55489;SDS011;44029;52.956;4.772;2023-04-06T07:16:57;17.17;;;8.35;;
55489;SDS011;44029;52.956;4.772;2023-04-06T07:19:22;30.58;;;8.48;;
55489;SDS011;44029;52.956;4.772;2023-04-06T07:21:48;15.95;;;7.03;;
55489;SDS011;44029;52.956;4.772;2023-04-06T07:24:14;18.50;;;8.00;;
55489;SDS011;44029;52.956;4.772;2023-04-06T07:26:40;17.35;;;9.05;;
55489;SDS011;44029;52.956;4.772;2023-04-06T07:29:05;23.83;;;9.45;;
55489;SDS011;44029;52.956;4.772;2023-04-06T07:31:31;16.58;;;7.78;;
55489;SDS011;44029;52.956;4.772;2023-04-06T07:33:56;15.40;;;8.30;;
55489;SDS011;44029;52.956;4.772;2023-04-06T07:36:22;21.45;;;8.90;;
55489;SDS011;44029;52.956;4.772;2023-04-06T07:38:47;18.88;;;8.48;;
55489;SDS011;44029;52.956;4.772;2023-04-06T07:41:13;21.00;;;9.65;;
55489;SDS011;44029;52.956;4.772;2023-04-06T07:43:39;20.20;;;9.30;;
55489;SDS011;44029;52.956;4.772;2023-04-06T07:46:04;21.20;;;10.02;;
55489;SDS011;44029;52.956;4.772;2023-04-06T07:48:29;20.02;;;8.98;;
55489;SDS011;44029;52.956;4.772;2023-04-06T07:51:02;17.15;;;9.27;;
55489;SDS011;44029;52.956;4.772;2023-04-06T07:53:28;23.63;;;9.05;;
55489;SDS011;44029;52.956;4.772;2023-04-06T07:55:53;27.25;;;10.65;;
55489;SDS011;44029;52.956;4.772;2023-04-06T07:58:20;22.27;;;9.27;;
55489;SDS011;44029;52.956;4.772;2023-04-06T08:00:45;24.95;;;10.38;;
55489;SDS011;44029;52.956;4.772;2023-04-06T08:03:11;20.15;;;9.43;;
55489;SDS011;44029;52.956;4.772;2023-04-06T08:05:36;25.75;;;9.70;;
55489;SDS011;44029;52.956;4.772;2023-04-06T08:08:01;20.50;;;9.00;;
55489;SDS011;44029;52.956;4.772;2023-04-06T08:10:27;19.50;;;9.10;;
55489;SDS011;44029;52.956;4.772;2023-04-06T08:12:52;26.10;;;10.52;;
55489;SDS011;44029;52.956;4.772;2023-04-06T08:15:17;23.85;;;10.40;;
55489;SDS011;44029;52.956;4.772;2023-04-06T08:17:43;23.80;;;11.00;;
55489;SDS011;44029;52.956;4.772;2023-04-06T08:20:08;25.38;;;11.75;;
55489;SDS011;44029;52.956;4.772;2023-04-06T08:22:34;23.88;;;11.23;;
55489;SDS011;44029;52.956;4.772;2023-04-06T08:24:59;29.13;;;11.02;;
55489;SDS011;44029;52.956;4.772;2023-04-06T08:27:25;27.92;;;10.73;;
55489;SDS011;44029;52.956;4.772;2023-04-06T08:29:50;22.13;;;10.95;;
55489;SDS011;44029;52.956;4.772;2023-04-06T08:32:16;27.15;;;12.45;;
55489;SDS011;44029;52.956;4.772;2023-04-06T08:34:41;22.55;;;11.80;;
55489;SDS011;44029;52.956;4.772;2023-04-06T08:37:07;28.08;;;11.38;;
55489;SDS011;44029;52.956;4.772;2023-04-06T08:39:32;28.85;;;11.98;;
55489;SDS011;44029;52.956;4.772;2023-04-06T08:41:58;30.98;;;14.32;;
55489;SDS011;44029;52.956;4.772;2023-04-06T08:44:27;28.02;;;12.77;;
55489;SDS011;44029;52.956;4.772;2023-04-06T08:46:54;27.98;;;12.05;;
55489;SDS011;44029;52.956;4.772;2023-04-06T08:49:20;28.15;;;12.65;;
55489;SDS011;44029;52.956;4.772;2023-04-06T08:51:45;26.98;;;13.45;;
55489;SDS011;44029;52.956;4.772;2023-04-06T08:54:12;30.90;;;12.60;;
55489;SDS011;44029;52.956;4.772;2023-04-06T08:56:37;31.38;;;13.75;;
55489;SDS011;44029;52.956;4.772;2023-04-06T08:59:04;28.45;;;14.43;;
55489;SDS011;44029;52.956;4.772;2023-04-06T09:01:31;33.00;;;15.15;;
55489;SDS011;44029;52.956;4.772;2023-04-06T09:03:59;30.52;;;13.75;;
55489;SDS011;44029;52.956;4.772;2023-04-06T09:06:30;31.42;;;14.27;;
55489;SDS011;44029;52.956;4.772;2023-04-06T09:08:55;26.50;;;13.95;;
55489;SDS011;44029;52.956;4.772;2023-04-06T09:11:21;37.33;;;15.63;;
55489;SDS011;44029;52.956;4.772;2023-04-06T09:13:48;27.15;;;14.98;;
55489;SDS011;44029;52.956;4.772;2023-04-06T09:16:14;34.05;;;15.07;;
55489;SDS011;44029;52.956;4.772;2023-04-06T09:18:40;33.65;;;16.00;;
55489;SDS011;44029;52.956;4.772;2023-04-06T09:21:06;31.95;;;16.13;;
55489;SDS011;44029;52.956;4.772;2023-04-06T09:23:32;35.15;;;17.15;;
55489;SDS011;44029;52.956;4.772;2023-04-06T09:26:11;35.25;;;16.70;;
55489;SDS011;44029;52.956;4.772;2023-04-06T09:31:10;34.50;;;15.38;;
55489;SDS011;44029;52.956;4.772;2023-04-06T09:33:40;36.60;;;17.20;;
55489;SDS011;44029;52.956;4.772;2023-04-06T09:36:06;33.58;;;16.70;;
55489;SDS011;44029;52.956;4.772;2023-04-06T09:38:34;31.80;;;14.85;;
55489;SDS011;44029;52.956;4.772;2023-04-06T09:41:01;33.40;;;16.73;;
55489;SDS011;44029;52.956;4.772;2023-04-06T09:43:27;30.08;;;13.80;;
55489;SDS011;44029;52.956;4.772;2023-04-06T09:45:52;33.72;;;16.27;;
55489;SDS011;44029;52.956;4.772;2023-04-06T09:48:19;33.75;;;14.57;;
55489;SDS011;44029;52.956;4.772;2023-04-06T09:50:46;37.03;;;16.60;;
55489;SDS011;44029;52.956;4.772;2023-04-06T09:53:13;31.35;;;14.55;;
55489;SDS011;44029;52.956;4.772;2023-04-06T09:55:40;34.08;;;16.65;;
55489;SDS011;44029;52.956;4.772;2023-04-06T09:58:12;25.60;;;13.60;;
55489;SDS011;44029;52.956;4.772;2023-04-06T10:03:39;30.65;;;13.57;;
55489;SDS011;44029;52.956;4.772;2023-04-06T10:06:11;30.48;;;15.23;;
55489;SDS011;44029;52.956;4.772;2023-04-06T10:08:38;28.67;;;13.50;;
55489;SDS011;44029;52.956;4.772;2023-04-06T10:11:06;30.10;;;13.18;;
55489;SDS011;44029;52.956;4.772;2023-04-06T10:13:32;30.77;;;15.75;;
55489;SDS011;44029;52.956;4.772;2023-04-06T10:15:59;33.75;;;15.13;;
55489;SDS011;44029;52.956;4.772;2023-04-06T10:18:26;33.78;;;15.90;;
55489;SDS011;44029;52.956;4.772;2023-04-06T10:23:43;32.45;;;14.88;;
55489;SDS011;44029;52.956;4.772;2023-04-06T10:26:16;32.67;;;14.23;;
55489;SDS011;44029;52.956;4.772;2023-04-06T10:28:45;33.05;;;15.73;;
55489;SDS011;44029;52.956;4.772;2023-04-06T10:31:11;29.63;;;13.88;;
55489;SDS011;44029;52.956;4.772;2023-04-06T10:33:37;27.75;;;14.63;;
55489;SDS011;44029;52.956;4.772;2023-04-06T10:36:12;25.33;;;13.80;;
55489;SDS011;44029;52.956;4.772;2023-04-06T10:38:40;27.77;;;13.95;;
55489;SDS011;44029;52.956;4.772;2023-04-06T10:41:07;22.25;;;10.65;;
55489;SDS011;44029;52.956;4.772;2023-04-06T10:43:34;28.27;;;11.95;;
55489;SDS011;44029;52.956;4.772;2023-04-06T10:46:04;19.40;;;10.27;;
55489;SDS011;44029;52.956;4.772;2023-04-06T10:48:40;20.10;;;8.95;;
55489;SDS011;44029;52.956;4.772;2023-04-06T10:51:08;19.25;;;9.07;;
55489;SDS011;44029;52.956;4.772;2023-04-06T10:53:35;16.85;;;8.95;;
55489;SDS011;44029;52.956;4.772;2023-04-06T10:56:01;20.35;;;9.25;;
55489;SDS011;44029;52.956;4.772;2023-04-06T10:58:27;21.98;;;8.90;;
55489;SDS011;44029;52.956;4.772;2023-04-06T11:00:53;15.25;;;8.10;;
55489;SDS011;44029;52.956;4.772;2023-04-06T11:03:19;20.70;;;9.20;;
55489;SDS011;44029;52.956;4.772;2023-04-06T11:05:45;13.52;;;7.45;;
55489;SDS011;44029;52.956;4.772;2023-04-06T11:08:30;16.45;;;8.90;;
55489;SDS011;44029;52.956;4.772;2023-04-06T11:11:09;19.35;;;8.25;;
55489;SDS011;44029;52.956;4.772;2023-04-06T11:13:41;20.05;;;9.63;;
55489;SDS011;44029;52.956;4.772;2023-04-06T11:18:46;14.52;;;7.57;;
55489;SDS011;44029;52.956;4.772;2023-04-06T11:21:20;13.98;;;7.25;;
55489;SDS011;44029;52.956;4.772;2023-04-06T11:24:08;20.85;;;9.07;;
55489;SDS011;44029;52.956;4.772;2023-04-06T11:26:42;23.45;;;10.07;;
55489;SDS011;44029;52.956;4.772;2023-04-06T11:29:09;15.63;;;8.32;;
55489;SDS011;44029;52.956;4.772;2023-04-06T11:31:39;18.95;;;9.95;;
55489;SDS011;44029;52.956;4.772;2023-04-06T11:34:12;14.52;;;7.72;;
55489;SDS011;44029;52.956;4.772;2023-04-06T11:36:41;14.90;;;8.27;;
55489;SDS011;44029;52.956;4.772;2023-04-06T11:39:08;13.25;;;6.43;;
55489;SDS011;44029;52.956;4.772;2023-04-06T11:41:34;25.48;;;9.75;;
55489;SDS011;44029;52.956;4.772;2023-04-06T11:44:02;18.23;;;9.93;;
55489;SDS011;44029;52.956;4.772;2023-04-06T11:46:28;19.27;;;8.68;;
55489;SDS011;44029;52.956;4.772;2023-04-06T11:48:57;13.98;;;6.97;;
55489;SDS011;44029;52.956;4.772;2023-04-06T11:51:24;15.23;;;8.77;;
55489;SDS011;44029;52.956;4.772;2023-04-06T11:53:49;13.80;;;7.35;;
55489;SDS011;44029;52.956;4.772;2023-04-06T11:56:26;22.88;;;11.02;;
55489;SDS011;44029;52.956;4.772;2023-04-06T11:58:57;16.63;;;7.85;;
55489;SDS011;44029;52.956;4.772;2023-04-06T12:01:23;19.10;;;9.05;;
55489;SDS011;44029;52.956;4.772;2023-04-06T12:03:50;20.50;;;9.27;;
55489;SDS011;44029;52.956;4.772;2023-04-06T12:06:16;24.55;;;11.02;;
55489;SDS011;44029;52.956;4.772;2023-04-06T12:08:41;17.33;;;9.07;;
55489;SDS011;44029;52.956;4.772;2023-04-06T12:11:07;17.23;;;9.80;;
55489;SDS011;44029;52.956;4.772;2023-04-06T12:13:32;16.35;;;8.85;;
55489;SDS011;44029;52.956;4.772;2023-04-06T12:15:58;12.55;;;7.88;;
55489;SDS011;44029;52.956;4.772;2023-04-06T12:18:23;18.95;;;8.23;;
55489;SDS011;44029;52.956;4.772;2023-04-06T12:20:48;18.85;;;9.00;;
55489;SDS011;44029;52.956;4.772;2023-04-06T12:23:14;17.77;;;9.52;;
55489;SDS011;44029;52.956;4.772;2023-04-06T12:25:39;12.88;;;7.93;;
55489;SDS011;44029;52.956;4.772;2023-04-06T12:28:06;17.98;;;7.68;;
55489;SDS011;44029;52.956;4.772;2023-04-06T12:30:31;13.38;;;6.57;;
55489;SDS011;44029;52.956;4.772;2023-04-06T12:32:57;13.88;;;7.57;;
55489;SDS011;44029;52.956;4.772;2023-04-06T12:35:22;17.90;;;9.00;;
55489;SDS011;44029;52.956;4.772;2023-04-06T12:37:48;19.65;;;8.27;;
55489;SDS011;44029;52.956;4.772;2023-04-06T12:40:13;15.95;;;8.82;;
55489;SDS011;44029;52.956;4.772;2023-04-06T12:42:39;12.38;;;6.30;;
55489;SDS011;44029;52.956;4.772;2023-04-06T12:45:06;20.35;;;8.70;;
55489;SDS011;44029;52.956;4.772;2023-04-06T12:47:32;17.05;;;8.23;;
55489;SDS011;44029;52.956;4.772;2023-04-06T12:49:58;15.80;;;7.53;;
55489;SDS011;44029;52.956;4.772;2023-04-06T12:52:23;11.90;;;6.75;;
55489;SDS011;44029;52.956;4.772;2023-04-06T12:54:48;13.93;;;7.63;;
55489;SDS011;44029;52.956;4.772;2023-04-06T12:57:14;13.07;;;7.60;;
55489;SDS011;44029;52.956;4.772;2023-04-06T12:59:42;14.02;;;7.60;;
55489;SDS011;44029;52.956;4.772;2023-04-06T13:02:09;15.10;;;7.35;;
55489;SDS011;44029;52.956;4.772;2023-04-06T13:04:35;11.07;;;5.60;;
55489;SDS011;44029;52.956;4.772;2023-04-06T13:07:00;11.98;;;7.38;;
55489;SDS011;44029;52.956;4.772;2023-04-06T13:09:26;13.77;;;6.57;;
55489;SDS011;44029;52.956;4.772;2023-04-06T13:11:51;12.55;;;7.40;;
55489;SDS011;44029;52.956;4.772;2023-04-06T13:14:16;12.80;;;6.90;;
55489;SDS011;44029;52.956;4.772;2023-04-06T13:16:42;12.50;;;6.07;;
55489;SDS011;44029;52.956;4.772;2023-04-06T13:19:07;14.20;;;6.45;;
55489;SDS011;44029;52.956;4.772;2023-04-06T13:21:33;9.95;;;5.25;;
55489;SDS011;44029;52.956;4.772;2023-04-06T13:23:58;10.82;;;6.07;;
55489;SDS011;44029;52.956;4.772;2023-04-06T13:26:23;6.53;;;3.80;;
55489;SDS011;44029;52.956;4.772;2023-04-06T13:28:50;10.43;;;5.25;;
55489;SDS011;44029;52.956;4.772;2023-04-06T13:31:15;15.02;;;5.88;;
55489;SDS011;44029;52.956;4.772;2023-04-06T13:33:41;6.32;;;3.97;;
55489;SDS011;44029;52.956;4.772;2023-04-06T13:36:06;9.60;;;4.47;;
55489;SDS011;44029;52.956;4.772;2023-04-06T13:38:32;7.50;;;4.55;;
55489;SDS011;44029;52.956;4.772;2023-04-06T13:40:58;10.82;;;5.28;;
55489;SDS011;44029;52.956;4.772;2023-04-06T13:43:24;12.35;;;5.18;;
55489;SDS011;44029;52.956;4.772;2023-04-06T13:45:51;7.88;;;4.05;;
55489;SDS011;44029;52.956;4.772;2023-04-06T13:48:20;13.45;;;4.82;;
55489;SDS011;44029;52.956;4.772;2023-04-06T13:50:45;9.48;;;5.30;;
55489;SDS011;44029;52.956;4.772;2023-04-06T13:53:11;12.45;;;5.13;;
55489;SDS011;44029;52.956;4.772;2023-04-06T13:55:36;8.93;;;4.80;;
55489;SDS011;44029;52.956;4.772;2023-04-06T13:58:01;6.90;;;4.50;;
55489;SDS011;44029;52.956;4.772;2023-04-06T14:00:27;6.40;;;3.47;;
55489;SDS011;44029;52.956;4.772;2023-04-06T14:02:55;10.02;;;4.38;;
55489;SDS011;44029;52.956;4.772;2023-04-06T14:05:20;11.63;;;5.18;;
55489;SDS011;44029;52.956;4.772;2023-04-06T14:07:47;11.77;;;5.72;;
55489;SDS011;44029;52.956;4.772;2023-04-06T14:10:12;13.52;;;5.50;;
55489;SDS011;44029;52.956;4.772;2023-04-06T14:12:42;13.85;;;7.53;;
55489;SDS011;44029;52.956;4.772;2023-04-06T14:15:10;11.20;;;5.22;;
55489;SDS011;44029;52.956;4.772;2023-04-06T14:17:36;8.20;;;5.15;;
55489;SDS011;44029;52.956;4.772;2023-04-06T14:20:02;7.10;;;4.13;;
55489;SDS011;44029;52.956;4.772;2023-04-06T14:22:27;9.32;;;4.22;;
55489;SDS011;44029;52.956;4.772;2023-04-06T14:24:53;7.97;;;4.05;;
55489;SDS011;44029;52.956;4.772;2023-04-06T14:27:18;9.98;;;4.90;;
55489;SDS011;44029;52.956;4.772;2023-04-06T14:29:43;10.55;;;5.53;;
55489;SDS011;44029;52.956;4.772;2023-04-06T14:32:09;12.35;;;5.95;;
55489;SDS011;44029;52.956;4.772;2023-04-06T14:34:37;13.10;;;5.43;;
55489;SDS011;44029;52.956;4.772;2023-04-06T14:37:02;9.48;;;4.95;;